Time;durP1;ratioP1;P1;durP2;ratioP2;P2;SDS_P1;SDS_P2;PMS_P1;PMS_P2;Temp;Humidity;BMP_temperature;BMP_pressure;BME280_temperature;BME280_humidity;BME280_pressure;Samples;Min_cycle;Max_cycle;Signal;HPM_P1;HPM_P2
2021/12/14 00:01:35;;;;;;;10.10;7.80;;;;;;;;;;5089881;28;20036;-84
2021/12/14 00:04:06;;;;;;;9.85;7.57;;;;;;;;;;5082993;28;20047;-85
2021/12/14 00:06:31;;;;;;;9.65;7.53;;;;;;;;;;5091474;28;20028;-86
2021/12/14 00:08:59;;;;;;;8.55;6.38;;;;;;;;;;5089280;28;20031;-84
2021/12/14 00:17:18;;;;;;;12.23;7.80;;;;;;;;;;5089766;28;20085;-83
2021/12/14 00:19:44;;;;;;;10.55;7.72;;;;;;;;;;5091161;28;21730;-84
2021/12/14 00:25:06;;;;;;;9.70;7.68;;;;;;;;;;5020454;28;20040;-82
2021/12/14 00:27:32;;;;;;;12.20;8.00;;;;;;;;;;5084253;28;20063;-84
2021/12/14 00:30:00;;;;;;;10.35;7.80;;;;;;;;;;5086226;28;20097;-87
2021/12/14 00:32:29;;;;;;;10.20;7.57;;;;;;;;;;5088373;28;20491;-84
2021/12/14 00:34:58;;;;;;;11.35;8.40;;;;;;;;;;5091147;28;20028;-87
2021/12/14 00:37:34;;;;;;;10.10;7.32;;;;;;;;;;5106236;28;20109;-87
2021/12/14 00:40:05;;;;;;;13.38;9.05;;;;;;;;;;5085725;28;20024;-84
2021/12/14 00:42:31;;;;;;;9.90;7.05;;;;;;;;;;5092311;28;20036;-84
2021/12/14 00:44:56;;;;;;;11.50;8.65;;;;;;;;;;5090683;28;20022;-81
2021/12/14 00:47:22;;;;;;;11.15;8.25;;;;;;;;;;5089928;28;20028;-84
2021/12/14 00:49:49;;;;;;;10.70;7.63;;;;;;;;;;5089414;28;20020;-84
2021/12/14 00:52:14;;;;;;;11.30;7.80;;;;;;;;;;5091026;28;20024;-84
2021/12/14 00:54:40;;;;;;;12.05;8.73;;;;;;;;;;5088631;28;20114;-84
2021/12/14 00:57:07;;;;;;;10.35;7.50;;;;;;;;;;5088498;28;20020;-81
2021/12/14 00:59:33;;;;;;;11.35;7.78;;;;;;;;;;5088429;28;20438;-84
2021/12/14 01:02:21;;;;;;;11.38;8.32;;;;;;;;;;5089758;28;20386;-84
2021/12/14 01:04:53;;;;;;;11.85;8.20;;;;;;;;;;5082479;28;20425;-86
2021/12/14 01:07:23;;;;;;;11.50;8.18;;;;;;;;;;5101468;28;20028;-84
2021/12/14 01:09:51;;;;;;;11.90;7.85;;;;;;;;;;5086603;28;20449;-84
2021/12/14 01:12:31;;;;;;;12.30;8.10;;;;;;;;;;5101606;27;20562;-84
2021/12/14 01:18:03;;;;;;;11.13;7.60;;;;;;;;;;5092047;28;20030;-87
2021/12/14 01:20:37;;;;;;;9.98;7.60;;;;;;;;;;5089762;28;20027;-84
2021/12/14 01:23:14;;;;;;;10.90;7.78;;;;;;;;;;5088331;28;20391;-84
2021/12/14 01:25:43;;;;;;;11.77;8.82;;;;;;;;;;5089659;28;20119;-84
2021/12/14 01:28:15;;;;;;;12.43;8.55;;;;;;;;;;5090714;28;20059;-87
2021/12/14 01:31:08;;;;;;;13.85;8.85;;;;;;;;;;5086320;28;20024;-84
2021/12/14 01:33:35;;;;;;;13.43;9.60;;;;;;;;;;5087066;28;20368;-86
2021/12/14 01:36:09;;;;;;;13.48;9.05;;;;;;;;;;5088124;28;20028;-83
2021/12/14 01:38:45;;;;;;;12.77;8.57;;;;;;;;;;5087380;28;20042;-84
2021/12/14 01:41:14;;;;;;;14.10;9.30;;;;;;;;;;5090488;28;20049;-84
2021/12/14 01:43:42;;;;;;;13.52;9.35;;;;;;;;;;5085222;28;20036;-88
2021/12/14 01:46:24;;;;;;;13.23;9.10;;;;;;;;;;5088470;28;20028;-82
2021/12/14 01:48:51;;;;;;;12.98;9.30;;;;;;;;;;5088170;28;20394;-84
2021/12/14 01:51:17;;;;;;;13.05;9.68;;;;;;;;;;5089727;28;20036;-84
2021/12/14 01:53:44;;;;;;;13.27;8.98;;;;;;;;;;5086231;28;20020;-81
2021/12/14 01:56:14;;;;;;;14.05;9.43;;;;;;;;;;5092398;28;20467;-84
2021/12/14 01:58:45;;;;;;;14.32;9.98;;;;;;;;;;5085452;28;20078;-89
2021/12/14 02:01:42;;;;;;;12.85;8.77;;;;;;;;;;5087478;28;20171;-84
2021/12/14 02:04:14;;;;;;;15.40;9.50;;;;;;;;;;5086134;28;20422;-84
2021/12/14 02:06:40;;;;;;;14.30;9.65;;;;;;;;;;5089777;28;20057;-84
2021/12/14 02:09:10;;;;;;;14.23;9.43;;;;;;;;;;5086994;28;20032;-84
2021/12/14 02:11:41;;;;;;;13.68;9.15;;;;;;;;;;5081542;28;20040;-84
2021/12/14 02:14:07;;;;;;;14.77;9.38;;;;;;;;;;5068523;28;20032;-81
2021/12/14 02:16:33;;;;;;;12.32;8.13;;;;;;;;;;5068687;28;20031;-84
2021/12/14 02:19:05;;;;;;;13.80;9.50;;;;;;;;;;5069037;28;20845;-84
2021/12/14 02:21:31;;;;;;;13.63;9.32;;;;;;;;;;5068343;28;20391;-84
2021/12/14 02:23:59;;;;;;;14.27;9.63;;;;;;;;;;5070635;28;20108;-84
2021/12/14 02:26:31;;;;;;;15.02;8.88;;;;;;;;;;5085056;28;20032;-81
2021/12/14 02:28:59;;;;;;;13.15;9.35;;;;;;;;;;5068353;28;20467;-83
2021/12/14 02:31:26;;;;;;;15.65;9.35;;;;;;;;;;5070800;28;20035;-84
2021/12/14 02:33:55;;;;;;;12.80;9.20;;;;;;;;;;5070163;28;20051;-84
2021/12/14 02:36:24;;;;;;;12.48;9.15;;;;;;;;;;5091049;28;20028;-84
2021/12/14 02:39:04;;;;;;;14.23;9.07;;;;;;;;;;5069587;28;20071;-84
2021/12/14 02:41:30;;;;;;;14.32;9.38;;;;;;;;;;5084550;28;20028;-87
2021/12/14 02:43:57;;;;;;;13.25;9.15;;;;;;;;;;5073622;28;20403;-84
2021/12/14 02:46:33;;;;;;;14.88;9.15;;;;;;;;;;5070898;28;20031;-87
2021/12/14 02:49:03;;;;;;;13.70;9.27;;;;;;;;;;5069914;28;20031;-87
2021/12/14 02:51:35;;;;;;;16.52;9.52;;;;;;;;;;5069591;28;20031;-88
2021/12/14 02:54:05;;;;;;;13.77;9.73;;;;;;;;;;5086670;28;20036;-83
2021/12/14 02:56:33;;;;;;;13.68;9.27;;;;;;;;;;5066595;28;20043;-87
2021/12/14 02:59:04;;;;;;;12.25;8.45;;;;;;;;;;5073577;28;20375;-84
2021/12/14 03:01:30;;;;;;;13.60;8.70;;;;;;;;;;5069265;28;20028;-84
2021/12/14 03:04:05;;;;;;;14.77;9.05;;;;;;;;;;5084483;28;20510;-88
2021/12/14 03:06:35;;;;;;;13.63;8.25;;;;;;;;;;5070125;28;20066;-85
2021/12/14 03:09:16;;;;;;;12.95;8.68;;;;;;;;;;5066340;28;20028;-83
2021/12/14 03:11:43;;;;;;;12.43;8.27;;;;;;;;;;5071959;28;20036;-87
2021/12/14 03:14:09;;;;;;;11.98;7.97;;;;;;;;;;5087013;28;20403;-88
2021/12/14 03:16:37;;;;;;;11.88;8.38;;;;;;;;;;5087546;28;20024;-84
2021/12/14 03:19:06;;;;;;;10.75;7.75;;;;;;;;;;5070906;28;20032;-82
2021/12/14 03:21:35;;;;;;;11.55;8.02;;;;;;;;;;5068538;28;20039;-85
2021/12/14 03:24:05;;;;;;;11.73;8.10;;;;;;;;;;5067617;28;20032;-81
2021/12/14 03:26:33;;;;;;;12.25;8.05;;;;;;;;;;5069438;28;20533;-84
2021/12/14 03:29:05;;;;;;;12.27;8.60;;;;;;;;;;5064904;28;20036;-86
2021/12/14 03:31:35;;;;;;;11.73;8.03;;;;;;;;;;5086894;28;20020;-88
2021/12/14 03:34:19;;;;;;;13.25;8.07;;;;;;;;;;5072521;28;20028;-90
2021/12/14 03:36:52;;;;;;;11.15;7.68;;;;;;;;;;5071271;28;20048;-87
2021/12/14 03:39:24;;;;;;;10.85;7.63;;;;;;;;;;5076139;28;20050;-88
2021/12/14 03:42:00;;;;;;;10.70;7.18;;;;;;;;;;5078047;28;20512;-84
2021/12/14 03:44:29;;;;;;;11.57;7.32;;;;;;;;;;5067483;28;20024;-87
2021/12/14 03:46:56;;;;;;;11.65;7.32;;;;;;;;;;5071655;28;20554;-86
2021/12/14 03:49:26;;;;;;;9.70;6.22;;;;;;;;;;5076509;28;20027;-84
2021/12/14 03:51:52;;;;;;;10.60;6.90;;;;;;;;;;5073028;28;20494;-81
2021/12/14 03:54:19;;;;;;;12.40;7.10;;;;;;;;;;5074609;28;20111;-87
2021/12/14 03:56:45;;;;;;;10.10;6.25;;;;;;;;;;5073050;28;20027;-83
2021/12/14 03:59:11;;;;;;;12.02;6.65;;;;;;;;;;5074017;28;20032;-84
2021/12/14 04:01:40;;;;;;;11.57;5.90;;;;;;;;;;5089049;28;20528;-87
2021/12/14 04:04:20;;;;;;;9.32;6.10;;;;;;;;;;5071724;28;20479;-84
2021/12/14 04:06:50;;;;;;;9.20;5.82;;;;;;;;;;5067841;28;20515;-82
2021/12/14 04:09:18;;;;;;;10.18;6.15;;;;;;;;;;5089455;28;20024;-81
2021/12/14 04:11:44;;;;;;;11.15;6.30;;;;;;;;;;5070891;28;20039;-81
2021/12/14 04:14:10;;;;;;;10.20;6.30;;;;;;;;;;5072404;28;20067;-87
2021/12/14 04:16:40;;;;;;;9.77;5.50;;;;;;;;;;5071356;28;20776;-81
2021/12/14 04:19:10;;;;;;;8.75;5.85;;;;;;;;;;5063021;28;20025;-81
2021/12/14 04:21:38;;;;;;;10.60;6.32;;;;;;;;;;5088274;28;20027;-86
2021/12/14 04:24:06;;;;;;;10.75;5.97;;;;;;;;;;5070346;28;20151;-82
2021/12/14 04:26:32;;;;;;;9.75;6.07;;;;;;;;;;5067255;28;20029;-82
2021/12/14 04:29:00;;;;;;;8.10;5.60;;;;;;;;;;5086118;28;20039;-81
2021/12/14 04:31:26;;;;;;;11.20;6.50;;;;;;;;;;5070461;28;20050;-87
2021/12/14 04:33:52;;;;;;;11.02;5.97;;;;;;;;;;5072233;28;20051;-83
2021/12/14 04:36:23;;;;;;;9.07;5.80;;;;;;;;;;5068693;28;20029;-81
2021/12/14 04:38:56;;;;;;;11.55;6.25;;;;;;;;;;5068978;28;20389;-86
2021/12/14 04:52:28;;;;;;;9.48;5.70;;;;;;;;;;5089947;28;20078;-84
2021/12/14 04:55:09;;;;;;;10.57;6.68;;;;;;;;;;5071695;28;20483;-88
2021/12/14 04:57:38;;;;;;;11.77;6.35;;;;;;;;;;5087212;28;20495;-84
2021/12/14 05:00:26;;;;;;;11.20;6.40;;;;;;;;;;5072903;28;20041;-84
2021/12/14 05:02:54;;;;;;;12.65;7.00;;;;;;;;;;5087743;28;20024;-84
2021/12/14 05:05:24;;;;;;;9.75;6.15;;;;;;;;;;5074262;28;20024;-82
2021/12/14 05:10:52;;;;;;;10.55;6.57;;;;;;;;;;5091422;28;20027;-87
2021/12/14 05:13:26;;;;;;;10.80;6.43;;;;;;;;;;5083340;28;20093;-81
2021/12/14 05:15:51;;;;;;;10.73;6.43;;;;;;;;;;5088392;28;20028;-86
2021/12/14 05:18:17;;;;;;;11.75;7.22;;;;;;;;;;5088961;28;20034;-81
2021/12/14 05:20:44;;;;;;;11.57;6.80;;;;;;;;;;5084586;28;20611;-81
2021/12/14 05:23:12;;;;;;;11.63;7.13;;;;;;;;;;5087257;28;20498;-84
2021/12/14 05:25:38;;;;;;;13.00;7.85;;;;;;;;;;5084853;28;20028;-81
2021/12/14 05:28:08;;;;;;;12.02;6.88;;;;;;;;;;5086579;28;20034;-84
2021/12/14 05:30:40;;;;;;;10.48;6.45;;;;;;;;;;5085456;28;20024;-89
2021/12/14 05:33:28;;;;;;;12.10;7.43;;;;;;;;;;5086767;28;20028;-84
2021/12/14 05:35:57;;;;;;;13.55;7.70;;;;;;;;;;5085972;28;20035;-84
2021/12/14 05:38:43;;;;;;;14.85;7.88;;;;;;;;;;5082155;28;20027;-84
2021/12/14 05:43:05;;;;;;;16.17;8.88;;;;;;;;;;5087924;28;20028;-84
2021/12/14 05:43:57;;;;;;;13.75;8.05;;;;;;;;;;5089710;28;20035;-82
2021/12/14 05:46:23;;;;;;;12.93;7.88;;;;;;;;;;5086537;28;20503;-84
2021/12/14 05:48:56;;;;;;;11.68;7.40;;;;;;;;;;5082337;28;20467;-84
2021/12/14 05:51:22;;;;;;;13.77;7.38;;;;;;;;;;5083089;28;20024;-84
2021/12/14 05:53:50;;;;;;;13.80;8.27;;;;;;;;;;5084059;28;20031;-84
2021/12/14 05:56:20;;;;;;;13.30;8.00;;;;;;;;;;5087299;28;20020;-87
2021/12/14 05:58:48;;;;;;;14.02;8.23;;;;;;;;;;5084738;28;20059;-87
2021/12/14 06:01:18;;;;;;;15.70;8.63;;;;;;;;;;5082181;28;20036;-84
2021/12/14 06:03:50;;;;;;;16.52;8.50;;;;;;;;;;5087642;28;20074;-89
2021/12/14 06:06:20;;;;;;;17.00;9.97;;;;;;;;;;5082534;28;20039;-86
2021/12/14 06:08:45;;;;;;;14.95;8.65;;;;;;;;;;5083784;28;20348;-89
2021/12/14 06:11:19;;;;;;;14.32;9.05;;;;;;;;;;5088930;28;20118;-84
2021/12/14 06:13:45;;;;;;;14.80;9.55;;;;;;;;;;5083634;28;20075;-88
2021/12/14 06:16:33;;;;;;;16.00;9.82;;;;;;;;;;5090002;28;20024;-82
2021/12/14 06:19:23;;;;;;;14.90;8.93;;;;;;;;;;5084963;28;20028;-84
2021/12/14 06:22:00;;;;;;;15.45;9.13;;;;;;;;;;5082888;28;20106;-83
2021/12/14 06:24:30;;;;;;;15.13;9.07;;;;;;;;;;5081759;28;20035;-84
2021/12/14 06:26:59;;;;;;;15.70;9.55;;;;;;;;;;5079897;28;20029;-87
2021/12/14 06:29:28;;;;;;;15.05;9.23;;;;;;;;;;5088525;28;20119;-84
2021/12/14 06:31:55;;;;;;;15.82;10.02;;;;;;;;;;5084690;28;20067;-81
2021/12/14 06:34:29;;;;;;;13.93;9.10;;;;;;;;;;5085990;28;20035;-84
2021/12/14 06:38:11;;;;;;;17.10;10.32;;;;;;;;;;5084498;28;20055;-84
2021/12/14 06:40:40;;;;;;;17.15;10.65;;;;;;;;;;5086959;28;20028;-83
2021/12/14 06:43:21;;;;;;;14.73;9.57;;;;;;;;;;5083877;28;20020;-81
2021/12/14 06:45:55;;;;;;;17.20;10.25;;;;;;;;;;5088338;28;20081;-84
2021/12/14 06:48:24;;;;;;;17.33;10.30;;;;;;;;;;5087067;28;20028;-84
2021/12/14 06:51:07;;;;;;;16.10;10.35;;;;;;;;;;5089346;28;20024;-87
2021/12/14 06:53:36;;;;;;;;;;;;;;;;;;5085167;28;20056;-83
2021/12/14 06:56:05;;;;;;;16.95;10.38;;;;;;;;;;5087205;28;19973;-88
2021/12/14 06:58:44;;;;;;;17.83;10.27;;;;;;;;;;5085609;28;20028;-89
2021/12/14 07:01:17;;;;;;;19.02;10.75;;;;;;;;;;5086128;28;20020;-86
2021/12/14 07:03:47;;;;;;;15.60;9.93;;;;;;;;;;5088837;28;20024;-87
2021/12/14 07:06:35;;;;;;;18.05;11.02;;;;;;;;;;5084104;28;20044;-81
2021/12/14 07:09:19;;;;;;;17.65;10.65;;;;;;;;;;5085146;28;20031;-84
2021/12/14 07:11:55;;;;;;;17.02;10.25;;;;;;;;;;5085017;28;20554;-81
2021/12/14 07:14:26;;;;;;;17.05;10.32;;;;;;;;;;5053757;28;20152;-86
2021/12/14 07:16:54;;;;;;;18.63;11.13;;;;;;;;;;5055023;28;20036;-84
2021/12/14 07:19:45;;;;;;;21.45;11.40;;;;;;;;;;5069215;28;20028;-88
2021/12/14 07:22:28;;;;;;;18.02;11.57;;;;;;;;;;5053646;28;20086;-83
2021/12/14 07:25:22;;;;;;;17.90;11.13;;;;;;;;;;5052470;28;20028;-84
2021/12/14 07:27:49;;;;;;;20.00;11.35;;;;;;;;;;5042579;28;20032;-88
2021/12/14 07:30:37;;;;;;;19.40;12.07;;;;;;;;;;5067673;28;20035;-87
2021/12/14 07:33:12;;;;;;;16.90;10.63;;;;;;;;;;5067432;28;20020;-84
2021/12/14 07:35:37;;;;;;;18.50;10.70;;;;;;;;;;5050642;28;20064;-87
2021/12/14 07:38:23;;;;;;;18.42;11.20;;;;;;;;;;5067490;28;20537;-84
2021/12/14 07:41:11;;;;;;;21.10;11.82;;;;;;;;;;5060443;28;20511;-83
2021/12/14 07:43:48;;;;;;;22.70;11.93;;;;;;;;;;5049542;28;20038;-88
2021/12/14 07:46:16;;;;;;;22.35;12.65;;;;;;;;;;5054209;28;20496;-87
2021/12/14 07:48:56;;;;;;;20.63;11.38;;;;;;;;;;5050651;28;20024;-81
2021/12/14 07:51:23;;;;;;;18.65;10.88;;;;;;;;;;5052804;28;20376;-82
2021/12/14 07:53:54;;;;;;;19.83;12.25;;;;;;;;;;5053989;28;20029;-84
2021/12/14 07:56:50;;;;;;;23.55;11.57;;;;;;;;;;5072805;28;20480;-82
2021/12/14 07:59:23;;;;;;;19.27;11.77;;;;;;;;;;5056561;28;20077;-81
2021/12/14 08:01:50;;;;;;;;;;;;;;;;;;5071442;28;20507;-84
2021/12/14 08:04:15;;;;;;;18.90;10.93;;;;;;;;;;5072973;28;19918;-88
2021/12/14 08:06:48;;;;;;;18.98;11.18;;;;;;;;;;5051909;28;20031;-82
2021/12/14 08:09:54;;;;;;;20.05;12.35;;;;;;;;;;5051378;28;20403;-84
2021/12/14 08:12:28;;;;;;;20.52;12.05;;;;;;;;;;5059164;28;20036;-82
2021/12/14 08:15:06;;;;;;;22.38;12.05;;;;;;;;;;5085909;28;20431;-90
2021/12/14 08:17:31;;;;;;;21.33;12.32;;;;;;;;;;5085404;28;20051;-84
2021/12/14 08:19:57;;;;;;;22.45;12.38;;;;;;;;;;5083214;28;20440;-88
2021/12/14 08:22:32;;;;;;;21.67;12.70;;;;;;;;;;5089301;28;20028;-84
2021/12/14 08:24:58;;;;;;;20.77;12.63;;;;;;;;;;5090833;28;20024;-88
2021/12/14 08:27:26;;;;;;;22.75;13.40;;;;;;;;;;5089233;28;20175;-84
2021/12/14 08:29:53;;;;;;;25.83;14.23;;;;;;;;;;5105704;28;20102;-89
2021/12/14 08:32:23;;;;;;;24.00;13.25;;;;;;;;;;5084339;28;20028;-84
2021/12/14 08:34:51;;;;;;;23.45;12.95;;;;;;;;;;5081766;28;20572;-83
2021/12/14 08:37:26;;;;;;;24.48;13.82;;;;;;;;;;5092109;28;20030;-84
2021/12/14 08:39:59;;;;;;;24.23;13.25;;;;;;;;;;5089339;28;20039;-84
2021/12/14 08:42:35;;;;;;;26.07;13.80;;;;;;;;;;5090589;28;20486;-89
2021/12/14 08:45:24;;;;;;;25.55;13.77;;;;;;;;;;5087911;28;20307;-84
2021/12/14 08:47:52;;;;;;;25.92;14.73;;;;;;;;;;5092755;28;20027;-84
2021/12/14 08:50:17;;;;;;;23.55;12.93;;;;;;;;;;5092338;28;20332;-81
2021/12/14 08:52:43;;;;;;;22.20;12.85;;;;;;;;;;5093416;28;20069;-84
2021/12/14 08:55:12;;;;;;;28.77;14.90;;;;;;;;;;5092918;28;20024;-81
2021/12/14 08:57:38;;;;;;;25.55;14.00;;;;;;;;;;5087331;28;20024;-81
2021/12/14 09:00:15;;;;;;;24.13;12.98;;;;;;;;;;5088548;28;20024;-84
2021/12/14 09:02:41;;;;;;;25.42;13.98;;;;;;;;;;5089147;28;20522;-84
2021/12/14 09:05:15;;;;;;;27.92;14.75;;;;;;;;;;5084647;28;20144;-81
2021/12/14 09:07:43;;;;;;;28.52;14.80;;;;;;;;;;5088939;28;20052;-84
2021/12/14 09:10:14;;;;;;;25.20;14.15;;;;;;;;;;5084208;28;20025;-84
2021/12/14 09:12:43;;;;;;;26.30;14.77;;;;;;;;;;5087508;28;20093;-81
2021/12/14 09:15:12;;;;;;;27.77;15.52;;;;;;;;;;5089152;28;20051;-88
2021/12/14 09:17:38;;;;;;;27.50;15.52;;;;;;;;;;5093476;28;20032;-88
2021/12/14 09:20:14;;;;;;;27.17;14.68;;;;;;;;;;5091452;28;20036;-81
2021/12/14 09:22:43;;;;;;;27.27;14.35;;;;;;;;;;5090699;28;20016;-85
2021/12/14 09:25:15;;;;;;;28.33;15.05;;;;;;;;;;5085584;28;20055;-89
2021/12/14 09:27:42;;;;;;;28.77;14.55;;;;;;;;;;5081757;28;20036;-82
2021/12/14 09:30:12;;;;;;;28.50;15.65;;;;;;;;;;5086588;28;20402;-83
2021/12/14 09:32:37;;;;;;;29.25;14.95;;;;;;;;;;5091366;28;20024;-81
2021/12/14 09:35:06;;;;;;;28.75;15.95;;;;;;;;;;5090522;28;20028;-84
2021/12/14 09:37:33;;;;;;;27.48;15.02;;;;;;;;;;5090658;28;20028;-81
2021/12/14 09:40:05;;;;;;;26.25;14.75;;;;;;;;;;5083336;28;20031;-81
2021/12/14 09:42:33;;;;;;;30.38;15.52;;;;;;;;;;5090687;28;20028;-84
2021/12/14 09:45:05;;;;;;;32.55;16.80;;;;;;;;;;5088977;28;20360;-81
2021/12/14 09:47:31;;;;;;;31.40;15.35;;;;;;;;;;5090147;28;20043;-89
2021/12/14 09:49:59;;;;;;;28.60;16.35;;;;;;;;;;5103157;28;20024;-81
2021/12/14 09:52:37;;;;;;;32.33;15.90;;;;;;;;;;5084854;28;20035;-81
2021/12/14 09:55:08;;;;;;;28.30;16.25;;;;;;;;;;5085105;28;20119;-82
2021/12/14 09:57:43;;;;;;;29.83;16.45;;;;;;;;;;5090847;28;20020;-89
2021/12/14 10:00:26;;;;;;;26.67;15.55;;;;;;;;;;5084956;28;20024;-81
2021/12/14 10:02:54;;;;;;;28.48;16.05;;;;;;;;;;5088208;28;20023;-81
2021/12/14 10:05:39;;;;;;;28.00;15.57;;;;;;;;;;5086523;28;20055;-84
2021/12/14 10:08:18;;;;;;;32.58;15.88;;;;;;;;;;5088610;28;20024;-88
2021/12/14 10:11:11;;;;;;;28.35;16.25;;;;;;;;;;5087624;28;20031;-81
2021/12/14 10:13:39;;;;;;;;;;;;;;;;;;5089311;28;20032;-84
2021/12/14 10:16:09;;;;;;;29.77;16.25;;;;;;;;;;5096179;28;20407;-82
2021/12/14 10:18:59;;;;;;;29.23;15.40;;;;;;;;;;5091296;28;21004;-89
2021/12/14 10:21:32;;;;;;;30.55;17.08;;;;;;;;;;5078213;28;20127;-89
2021/12/14 10:23:59;;;;;;;31.13;16.88;;;;;;;;;;5078160;28;20066;-81
2021/12/14 10:26:28;;;;;;;31.20;17.08;;;;;;;;;;5078723;28;20086;-81
2021/12/14 10:28:56;;;;;;;31.92;17.17;;;;;;;;;;5081146;28;20048;-84
2021/12/14 10:31:45;;;;;;;34.05;17.77;;;;;;;;;;5089558;28;20099;-81
2021/12/14 10:34:17;;;;;;;32.10;16.88;;;;;;;;;;5087571;28;20036;-81
2021/12/14 10:36:47;;;;;;;33.60;16.80;;;;;;;;;;5085335;28;20107;-83
2021/12/14 10:39:23;;;;;;;32.05;17.55;;;;;;;;;;5089881;28;20055;-81
2021/12/14 10:44:45;;;;;;;31.65;17.33;;;;;;;;;;5083537;28;20039;-84
2021/12/14 10:47:12;;;;;;;36.10;19.40;;;;;;;;;;5084561;28;20020;-82
2021/12/14 10:49:38;;;;;;;38.72;19.23;;;;;;;;;;5090024;28;20099;-84
2021/12/14 10:52:10;;;;;;;35.47;18.92;;;;;;;;;;5087636;28;20119;-81
2021/12/14 10:54:36;;;;;;;35.75;19.80;;;;;;;;;;5080410;28;20024;-87
2021/12/14 10:57:09;;;;;;;37.90;19.23;;;;;;;;;;5091192;28;20042;-90
2021/12/14 10:59:39;;;;;;;38.90;19.83;;;;;;;;;;5091622;28;20027;-84
2021/12/14 11:02:05;;;;;;;39.70;19.85;;;;;;;;;;5081137;28;20035;-90
2021/12/14 11:04:52;;;;;;;37.42;20.00;;;;;;;;;;5084871;28;20020;-83
2021/12/14 11:07:22;;;;;;;36.38;19.98;;;;;;;;;;5085120;28;20462;-81
2021/12/14 11:09:53;;;;;;;36.92;19.55;;;;;;;;;;5092553;28;20031;-84
2021/12/14 11:12:35;;;;;;;35.72;19.33;;;;;;;;;;5090928;28;20417;-84
2021/12/14 11:15:18;;;;;;;39.25;20.17;;;;;;;;;;5086884;28;20048;-84
2021/12/14 11:20:38;;;;;;;38.65;18.50;;;;;;;;;;5088734;28;20034;-81
2021/12/14 11:23:05;;;;;;;37.80;20.15;;;;;;;;;;5081349;28;20022;-84
2021/12/14 11:25:55;;;;;;;40.15;20.00;;;;;;;;;;5087544;28;20028;-89
2021/12/14 11:28:33;;;;;;;35.28;18.80;;;;;;;;;;5083892;28;20029;-83
2021/12/14 11:31:11;;;;;;;37.70;19.50;;;;;;;;;;5085589;28;20166;-89
2021/12/14 11:33:42;;;;;;;37.97;18.95;;;;;;;;;;5081062;28;20024;-83
2021/12/14 11:36:22;;;;;;;36.08;19.20;;;;;;;;;;5101341;28;20483;-84
2021/12/14 11:39:23;;;;;;;40.80;19.60;;;;;;;;;;5101736;28;20479;-90
2021/12/14 11:41:59;;;;;;;39.03;19.90;;;;;;;;;;5090320;28;20020;-90
2021/12/14 11:44:29;;;;;;;39.55;19.95;;;;;;;;;;5087640;28;20167;-82
2021/12/14 11:47:41;;;;;;;38.50;20.48;;;;;;;;;;5089927;28;20035;-84
2021/12/14 11:50:12;;;;;;;39.95;20.23;;;;;;;;;;5089873;28;20078;-81
2021/12/14 11:52:49;;;;;;;44.22;21.33;;;;;;;;;;5087187;28;20024;-89
2021/12/14 11:55:42;;;;;;;39.40;20.40;;;;;;;;;;5087575;28;22541;-87
2021/12/14 11:58:25;;;;;;;39.20;20.48;;;;;;;;;;5084204;28;20118;-83
2021/12/14 12:01:08;;;;;;;43.30;21.70;;;;;;;;;;5091534;28;20043;-83
2021/12/14 12:03:55;;;;;;;52.65;22.55;;;;;;;;;;5084380;28;20028;-84
2021/12/14 12:09:31;;;;;;;42.72;21.02;;;;;;;;;;5092804;28;20080;-84
2021/12/14 12:12:03;;;;;;;44.45;21.33;;;;;;;;;;5092078;28;20153;-89
2021/12/14 12:14:53;;;;;;;43.47;21.35;;;;;;;;;;5096356;28;20057;-83
2021/12/14 12:17:35;;;;;;;42.28;21.52;;;;;;;;;;5076628;28;20411;-85
2021/12/14 12:20:06;;;;;;;43.22;21.13;;;;;;;;;;5091475;28;20391;-84
2021/12/14 12:22:41;;;;;;;46.47;23.73;;;;;;;;;;5079128;28;20020;-83
2021/12/14 12:25:12;;;;;;;44.33;22.30;;;;;;;;;;5076130;28;20073;-83
2021/12/14 12:27:43;;;;;;;42.33;21.10;;;;;;;;;;5062670;28;20016;-83
2021/12/14 12:30:35;;;;;;;44.10;22.55;;;;;;;;;;5075354;28;20024;-83
2021/12/14 12:33:03;;;;;;;48.90;22.17;;;;;;;;;;5089965;28;20438;-83
2021/12/14 12:35:40;;;;;;;46.53;22.88;;;;;;;;;;5075813;28;20024;-84
2021/12/14 12:38:44;;;;;;;51.90;24.00;;;;;;;;;;5073640;28;20117;-84
2021/12/14 12:41:28;;;;;;;;;;;;;;;;;;5059502;28;20051;-84
2021/12/14 12:44:25;;;;;;;45.33;21.40;;;;;;;;;;5074742;28;19919;-84
2021/12/14 12:47:03;;;;;;;51.78;23.85;;;;;;;;;;5070509;28;20463;-83
2021/12/14 12:49:33;;;;;;;48.47;23.27;;;;;;;;;;5074347;28;20422;-84
2021/12/14 12:52:10;;;;;;;53.47;24.33;;;;;;;;;;5075729;28;20023;-83
2021/12/14 12:54:57;;;;;;;53.13;24.95;;;;;;;;;;5072666;28;20522;-82
2021/12/14 12:57:28;;;;;;;53.33;24.73;;;;;;;;;;5073347;28;20073;-90
2021/12/14 13:00:09;;;;;;;50.00;24.13;;;;;;;;;;5066346;28;20039;-84
2021/12/14 13:02:39;;;;;;;58.85;24.83;;;;;;;;;;5071918;28;20020;-84
2021/12/14 13:05:08;;;;;;;55.38;24.83;;;;;;;;;;5087825;28;20028;-84
2021/12/14 13:07:52;;;;;;;53.83;23.92;;;;;;;;;;5066246;28;20450;-84
2021/12/14 13:10:43;;;;;;;49.97;23.75;;;;;;;;;;5065644;28;20036;-84
2021/12/14 13:13:14;;;;;;;46.15;23.27;;;;;;;;;;5076230;28;20079;-85
2021/12/14 13:15:49;;;;;;;48.65;23.45;;;;;;;;;;5082250;28;20036;-83
2021/12/14 13:18:39;;;;;;;51.25;24.75;;;;;;;;;;5091070;28;20024;-82
2021/12/14 13:21:20;;;;;;;47.45;22.92;;;;;;;;;;5085673;28;23746;-84
2021/12/14 13:24:06;;;;;;;50.10;23.48;;;;;;;;;;5086503;28;20046;-81
2021/12/14 13:26:50;;;;;;;52.25;24.25;;;;;;;;;;5104548;28;20020;-84
2021/12/14 13:29:24;;;;;;;51.40;23.83;;;;;;;;;;5089679;28;20482;-84
2021/12/14 13:31:56;;;;;;;47.40;23.25;;;;;;;;;;5089612;28;20020;-88
2021/12/14 13:34:44;;;;;;;48.55;22.63;;;;;;;;;;5106561;28;20031;-81
2021/12/14 13:37:12;;;;;;;46.80;22.75;;;;;;;;;;5087895;28;20090;-89
2021/12/14 13:39:39;;;;;;;47.53;22.38;;;;;;;;;;5090593;28;20024;-85
2021/12/14 13:42:07;;;;;;;47.08;22.63;;;;;;;;;;5085291;28;20529;-84
2021/12/14 13:44:37;;;;;;;46.78;23.05;;;;;;;;;;5087591;28;20493;-82
2021/12/14 13:47:08;;;;;;;48.13;23.55;;;;;;;;;;5086607;28;20024;-81
2021/12/14 13:49:38;;;;;;;51.47;24.65;;;;;;;;;;5090004;28;20031;-88
2021/12/14 13:52:07;;;;;;;47.63;23.85;;;;;;;;;;5089531;28;20115;-84
2021/12/14 13:55:10;;;;;;;47.80;22.85;;;;;;;;;;5105471;28;20383;-81
2021/12/14 13:57:40;;;;;;;51.10;22.52;;;;;;;;;;5090195;28;20433;-82
2021/12/14 14:00:11;;;;;;;47.67;23.67;;;;;;;;;;5088244;28;20564;-90
2021/12/14 14:02:37;;;;;;;45.75;23.63;;;;;;;;;;5103940;28;20360;-84
2021/12/14 14:05:04;;;;;;;50.63;24.23;;;;;;;;;;5087952;28;20020;-84
2021/12/14 14:07:36;;;;;;;51.40;23.95;;;;;;;;;;5085208;28;20031;-81
2021/12/14 14:10:03;;;;;;;56.30;26.45;;;;;;;;;;5083548;28;20434;-80
2021/12/14 14:12:28;;;;;;;57.92;25.75;;;;;;;;;;5085653;28;20024;-87
2021/12/14 14:14:54;;;;;;;52.97;24.45;;;;;;;;;;5087211;28;20135;-84
2021/12/14 14:17:21;;;;;;;53.38;25.35;;;;;;;;;;5101906;28;20028;-90
2021/12/14 14:19:53;;;;;;;57.60;26.50;;;;;;;;;;5086906;28;20035;-84
2021/12/14 14:22:39;;;;;;;58.00;26.92;;;;;;;;;;5085628;28;20020;-85
2021/12/14 14:25:19;;;;;;;51.45;25.02;;;;;;;;;;5086274;28;20036;-89
2021/12/14 14:27:53;;;;;;;52.50;25.50;;;;;;;;;;5100328;28;20043;-89
2021/12/14 14:30:24;;;;;;;57.33;25.83;;;;;;;;;;5085280;28;20024;-84
2021/12/14 14:33:36;;;;;;;59.08;26.17;;;;;;;;;;5083784;28;20113;-83
2021/12/14 14:36:22;;;;;;;53.60;24.98;;;;;;;;;;5051780;28;20058;-87
2021/12/14 14:38:53;;;;;;;56.70;25.50;;;;;;;;;;5087295;28;20027;-90
2021/12/14 14:41:21;;;;;;;53.47;25.58;;;;;;;;;;5083218;28;20123;-84
2021/12/14 14:44:39;;;;;;;57.83;25.38;;;;;;;;;;5085181;28;20035;-84
2021/12/14 14:47:38;;;;;;;54.80;25.55;;;;;;;;;;5085602;28;20115;-87
2021/12/14 14:50:18;;;;;;;55.67;26.20;;;;;;;;;;5070043;28;20033;-84
2021/12/14 14:52:52;;;;;;;52.28;25.15;;;;;;;;;;5097047;28;20051;-84
2021/12/14 14:55:28;;;;;;;56.35;26.35;;;;;;;;;;5074439;28;20110;-84
2021/12/14 14:58:12;;;;;;;54.50;26.45;;;;;;;;;;5077892;28;20024;-85
2021/12/14 15:00:47;;;;;;;51.03;26.95;;;;;;;;;;5080367;28;20063;-88
2021/12/14 15:03:25;;;;;;;52.15;24.88;;;;;;;;;;5082336;28;20025;-84
2021/12/14 15:06:07;;;;;;;54.08;25.35;;;;;;;;;;5083951;28;20020;-81
2021/12/14 15:08:37;;;;;;;52.80;27.08;;;;;;;;;;5086063;28;20028;-88
2021/12/14 15:11:28;;;;;;;52.13;25.52;;;;;;;;;;5087804;28;20081;-84
2021/12/14 15:14:04;;;;;;;53.03;25.15;;;;;;;;;;5084900;28;20047;-89
2021/12/14 15:16:51;;;;;;;;;;;;;;;;;;;;;
2021/12/14 15:19:56;;;;;;;45.78;24.70;;;;;;;;;;5083753;28;20038;-88
2021/12/14 15:22:27;;;;;;;49.72;25.73;;;;;;;;;;5094813;28;20036;-82
2021/12/14 15:24:56;;;;;;;57.55;26.35;;;;;;;;;;5071266;28;20468;-84
2021/12/14 15:27:30;;;;;;;51.47;24.42;;;;;;;;;;5078456;28;20043;-89
2021/12/14 15:30:01;;;;;;;51.47;24.63;;;;;;;;;;5094342;28;20032;-84
2021/12/14 15:32:32;;;;;;;52.17;26.17;;;;;;;;;;5077886;28;20023;-86
2021/12/14 15:35:01;;;;;;;48.85;26.17;;;;;;;;;;5094561;28;20472;-84
2021/12/14 15:37:41;;;;;;;53.97;26.98;;;;;;;;;;5081990;28;20024;-84
2021/12/14 15:40:36;;;;;;;55.58;25.65;;;;;;;;;;5080749;28;20035;-83